sensor_id;sensor_type;location;lat;lon;timestamp;pressure;altitude;pressure_sealevel;temperature;humidity
59951;BME280;45812;53.540;9.774;2023-03-14T00:01:49;98782.66;;;9.42;100.00
59951;BME280;45812;53.540;9.774;2023-03-14T00:04:14;98790.63;;;9.42;100.00
59951;BME280;45812;53.540;9.774;2023-03-14T00:06:40;98796.78;;;9.36;100.00
59951;BME280;45812;53.540;9.774;2023-03-14T00:09:05;98789.22;;;9.39;100.00
59951;BME280;45812;53.540;9.774;2023-03-14T00:11:30;98795.34;;;9.33;100.00
59951;BME280;45812;53.540;9.774;2023-03-14T00:13:56;98805.56;;;9.36;100.00
59951;BME280;45812;53.540;9.774;2023-03-14T00:16:21;98812.28;;;9.46;100.00
59951;BME280;45812;53.540;9.774;2023-03-14T00:18:47;98815.75;;;9.59;100.00
59951;BME280;45812;53.540;9.774;2023-03-14T00:21:12;98807.59;;;9.74;100.00
59951;BME280;45812;53.540;9.774;2023-03-14T00:23:39;98803.47;;;9.85;100.00
59951;BME280;45812;53.540;9.774;2023-03-14T00:26:08;98805.31;;;9.84;100.00
59951;BME280;45812;53.540;9.774;2023-03-14T00:28:33;98813.47;;;9.96;100.00
59951;BME280;45812;53.540;9.774;2023-03-14T00:30:59;98790.34;;;10.03;100.00
59951;BME280;45812;53.540;9.774;2023-03-14T00:33:24;98790.78;;;10.00;100.00
59951;BME280;45812;53.540;9.774;2023-03-14T00:35:57;98776.88;;;10.05;100.00
59951;BME280;45812;53.540;9.774;2023-03-14T00:38:23;98779.53;;;10.05;100.00
59951;BME280;45812;53.540;9.774;2023-03-14T00:40:50;98771.75;;;10.03;100.00
59951;BME280;45812;53.540;9.774;2023-03-14T00:43:16;98768.06;;;10.11;100.00
59951;BME280;45812;53.540;9.774;2023-03-14T00:45:41;98756.22;;;10.00;100.00
59951;BME280;45812;53.540;9.774;2023-03-14T00:48:06;98749.28;;;9.92;100.00
59951;BME280;45812;53.540;9.774;2023-03-14T00:50:31;98751.34;;;9.84;100.00
59951;BME280;45812;53.540;9.774;2023-03-14T00:52:57;98758.09;;;9.93;100.00
59951;BME280;45812;53.540;9.774;2023-03-14T00:55:22;98754.38;;;10.07;100.00
59951;BME280;45812;53.540;9.774;2023-03-14T00:57:47;98761.34;;;9.95;100.00
59951;BME280;45812;53.540;9.774;2023-03-14T01:00:13;98758.09;;;9.93;100.00
59951;BME280;45812;53.540;9.774;2023-03-14T01:02:38;98759.91;;;9.99;100.00
59951;BME280;45812;53.540;9.774;2023-03-14T01:05:04;98773.16;;;10.12;100.00
59951;BME280;45812;53.540;9.774;2023-03-14T01:07:29;98778.66;;;10.17;100.00
59951;BME280;45812;53.540;9.774;2023-03-14T01:09:54;98770.50;;;10.25;100.00
59951;BME280;45812;53.540;9.774;2023-03-14T01:12:20;98774.56;;;10.28;100.00
59951;BME280;45812;53.540;9.774;2023-03-14T01:14:45;98781.91;;;10.19;100.00
59951;BME280;45812;53.540;9.774;2023-03-14T01:17:11;98784.81;;;10.24;100.00
59951;BME280;45812;53.540;9.774;2023-03-14T01:19:36;98788.88;;;10.34;100.00
59951;BME280;45812;53.540;9.774;2023-03-14T01:22:01;98781.53;;;10.29;100.00
59951;BME280;45812;53.540;9.774;2023-03-14T01:24:26;98771.31;;;10.26;100.00
59951;BME280;45812;53.540;9.774;2023-03-14T01:26:52;98776.59;;;10.19;100.00
59951;BME280;45812;53.540;9.774;2023-03-14T01:29:17;98774.19;;;10.24;100.00
59951;BME280;45812;53.540;9.774;2023-03-14T01:31:42;98757.38;;;10.30;100.00
59951;BME280;45812;53.540;9.774;2023-03-14T01:34:07;98754.28;;;10.34;100.00
59951;BME280;45812;53.540;9.774;2023-03-14T01:36:33;98752.50;;;10.27;100.00
59951;BME280;45812;53.540;9.774;2023-03-14T01:38:58;98721.22;;;10.10;100.00
59951;BME280;45812;53.540;9.774;2023-03-14T01:41:25;98714.72;;;10.06;100.00
59951;BME280;45812;53.540;9.774;2023-03-14T01:43:50;98697.94;;;9.98;100.00
59951;BME280;45812;53.540;9.774;2023-03-14T01:46:23;98692.47;;;9.93;100.00
59951;BME280;45812;53.540;9.774;2023-03-14T01:49:15;98686.16;;;9.88;100.00
59951;BME280;45812;53.540;9.774;2023-03-14T01:51:57;98688.84;;;9.75;100.00
59951;BME280;45812;53.540;9.774;2023-03-14T01:54:32;98697.44;;;9.70;100.00
59951;BME280;45812;53.540;9.774;2023-03-14T01:57:26;98708.06;;;9.70;100.00
59951;BME280;45812;53.540;9.774;2023-03-14T02:00:00;98711.34;;;9.65;100.00
59951;BME280;45812;53.540;9.774;2023-03-14T02:02:29;98703.16;;;9.74;100.00
59951;BME280;45812;53.540;9.774;2023-03-14T02:04:55;98706.84;;;9.66;100.00
59951;BME280;45812;53.540;9.774;2023-03-14T02:07:36;98688.81;;;9.81;100.00
59951;BME280;45812;53.540;9.774;2023-03-14T02:10:05;98672.31;;;9.73;100.00
59951;BME280;45812;53.540;9.774;2023-03-14T02:12:31;98659.66;;;9.61;100.00
59951;BME280;45812;53.540;9.774;2023-03-14T02:14:57;98641.31;;;9.53;100.00
59951;BME280;45812;53.540;9.774;2023-03-14T02:17:23;98629.03;;;9.46;100.00
59951;BME280;45812;53.540;9.774;2023-03-14T02:20:09;98626.66;;;9.31;100.00
59951;BME280;45812;53.540;9.774;2023-03-14T02:22:38;98622.56;;;9.28;100.00
59951;BME280;45812;53.540;9.774;2023-03-14T02:25:16;98633.81;;;9.30;100.00
59951;BME280;45812;53.540;9.774;2023-03-14T02:27:44;98635.41;;;9.38;100.00
59951;BME280;45812;53.540;9.774;2023-03-14T02:30:14;98635.84;;;9.35;100.00
59951;BME280;45812;53.540;9.774;2023-03-14T02:32:44;98635.59;;;9.43;100.00
59951;BME280;45812;53.540;9.774;2023-03-14T02:35:12;98632.13;;;9.49;100.00
59951;BME280;45812;53.540;9.774;2023-03-14T02:37:47;98633.75;;;9.50;100.00
59951;BME280;45812;53.540;9.774;2023-03-14T02:40:14;98644.38;;;9.50;100.00
59951;BME280;45812;53.540;9.774;2023-03-14T02:42:40;98640.66;;;9.58;100.00
59951;BME280;45812;53.540;9.774;2023-03-14T02:47:34;98662.31;;;9.68;100.00
59951;BME280;45812;53.540;9.774;2023-03-14T02:50:03;98651.66;;;9.75;100.00
59951;BME280;45812;53.540;9.774;2023-03-14T02:52:29;98657.34;;;9.78;100.00
59951;BME280;45812;53.540;9.774;2023-03-14T02:54:54;98647.09;;;9.88;100.00
59951;BME280;45812;53.540;9.774;2023-03-14T02:57:20;98658.97;;;9.86;100.00
59951;BME280;45812;53.540;9.774;2023-03-14T02:59:45;98645.44;;;9.94;100.00
59951;BME280;45812;53.540;9.774;2023-03-14T03:02:10;98656.47;;;9.97;100.00
59951;BME280;45812;53.540;9.774;2023-03-14T03:04:35;98660.16;;;9.96;100.00
59951;BME280;45812;53.540;9.774;2023-03-14T03:07:00;98651.16;;;9.97;100.00
59951;BME280;45812;53.540;9.774;2023-03-14T03:09:26;98653.59;;;9.99;100.00
59951;BME280;45812;53.540;9.774;2023-03-14T03:11:51;98640.66;;;10.09;100.00
59951;BME280;45812;53.540;9.774;2023-03-14T03:14:16;98660.66;;;10.18;100.00
59951;BME280;45812;53.540;9.774;2023-03-14T03:16:41;98643.28;;;10.22;100.00
59951;BME280;45812;53.540;9.774;2023-03-14T03:19:07;98654.53;;;10.24;100.00
59951;BME280;45812;53.540;9.774;2023-03-14T03:21:32;98637.94;;;10.29;100.00
59951;BME280;45812;53.540;9.774;2023-03-14T03:23:57;98668.59;;;10.31;100.00
59951;BME280;45812;53.540;9.774;2023-03-14T03:26:22;98625.19;;;10.38;100.00
59951;BME280;45812;53.540;9.774;2023-03-14T03:28:51;98637.66;;;10.44;100.00
59951;BME280;45812;53.540;9.774;2023-03-14T03:31:16;98632.13;;;10.39;100.00
59951;BME280;45812;53.540;9.774;2023-03-14T03:33:42;98620.69;;;10.38;100.00
59951;BME280;45812;53.540;9.774;2023-03-14T03:36:08;98619.47;;;10.34;100.00
59951;BME280;45812;53.540;9.774;2023-03-14T03:38:33;98613.31;;;10.40;100.00
59951;BME280;45812;53.540;9.774;2023-03-14T03:41:02;98593.09;;;10.32;100.00
59951;BME280;45812;53.540;9.774;2023-03-14T03:43:27;98583.50;;;10.31;100.00
59951;BME280;45812;53.540;9.774;2023-03-14T03:45:53;98577.31;;;10.38;100.00
59951;BME280;45812;53.540;9.774;2023-03-14T03:48:18;98589.03;;;10.30;100.00
59951;BME280;45812;53.540;9.774;2023-03-14T03:50:45;98586.59;;;10.28;100.00
59951;BME280;45812;53.540;9.774;2023-03-14T03:53:10;98602.34;;;10.30;100.00
59951;BME280;45812;53.540;9.774;2023-03-14T03:55:35;98594.13;;;10.31;100.00
59951;BME280;45812;53.540;9.774;2023-03-14T03:58:00;98603.47;;;10.09;100.00
59951;BME280;45812;53.540;9.774;2023-03-14T04:00:26;98603.09;;;9.99;100.00
59951;BME280;45812;53.540;9.774;2023-03-14T04:02:51;98616.16;;;10.07;100.00
59951;BME280;45812;53.540;9.774;2023-03-14T04:05:16;98606.94;;;10.10;100.00
59951;BME280;45812;53.540;9.774;2023-03-14T04:07:41;98610.72;;;10.20;100.00
59951;BME280;45812;53.540;9.774;2023-03-14T04:10:07;98592.50;;;10.30;100.00
59951;BME280;45812;53.540;9.774;2023-03-14T04:12:33;98602.72;;;10.34;100.00
59951;BME280;45812;53.540;9.774;2023-03-14T04:14:58;98591.66;;;10.37;100.00
59951;BME280;45812;53.540;9.774;2023-03-14T04:17:23;98582.63;;;10.38;100.00
59951;BME280;45812;53.540;9.774;2023-03-14T04:19:48;98588.00;;;10.31;100.00
59951;BME280;45812;53.540;9.774;2023-03-14T04:22:16;98593.69;;;10.41;100.00
59951;BME280;45812;53.540;9.774;2023-03-14T04:24:41;98591.22;;;10.40;100.00
59951;BME280;45812;53.540;9.774;2023-03-14T04:27:06;98575.06;;;10.03;100.00
59951;BME280;45812;53.540;9.774;2023-03-14T04:29:31;98584.38;;;9.81;100.00
59951;BME280;45812;53.540;9.774;2023-03-14T04:31:57;98584.03;;;9.64;100.00
59951;BME280;45812;53.540;9.774;2023-03-14T04:34:22;98595.69;;;9.69;100.00
59951;BME280;45812;53.540;9.774;2023-03-14T04:36:47;98590.75;;;9.73;100.00
59951;BME280;45812;53.540;9.774;2023-03-14T04:39:12;98596.88;;;9.74;100.00
59951;BME280;45812;53.540;9.774;2023-03-14T04:41:38;98599.31;;;9.75;100.00
59951;BME280;45812;53.540;9.774;2023-03-14T04:44:03;98601.13;;;9.88;100.00
59951;BME280;45812;53.540;9.774;2023-03-14T04:46:28;98595.81;;;9.81;100.00
59951;BME280;45812;53.540;9.774;2023-03-14T04:48:54;98585.66;;;9.71;100.00
59951;BME280;45812;53.540;9.774;2023-03-14T04:51:21;98582.34;;;9.31;100.00
59951;BME280;45812;53.540;9.774;2023-03-14T04:53:48;98592.41;;;8.96;100.00
59951;BME280;45812;53.540;9.774;2023-03-14T04:56:13;98592.22;;;8.71;100.00
59951;BME280;45812;53.540;9.774;2023-03-14T04:58:38;98605.06;;;8.55;100.00
59951;BME280;45812;53.540;9.774;2023-03-14T05:01:05;98608.53;;;8.42;100.00
59951;BME280;45812;53.540;9.774;2023-03-14T05:03:30;98600.56;;;8.48;100.00
59951;BME280;45812;53.540;9.774;2023-03-14T05:05:56;98603.03;;;8.57;100.00
59951;BME280;45812;53.540;9.774;2023-03-14T05:08:22;98588.75;;;8.44;100.00
59951;BME280;45812;53.540;9.774;2023-03-14T05:10:55;98588.13;;;8.42;100.00
59951;BME280;45812;53.540;9.774;2023-03-14T05:13:20;98584.41;;;8.30;100.00
59951;BME280;45812;53.540;9.774;2023-03-14T05:15:46;98576.69;;;8.35;100.00
59951;BME280;45812;53.540;9.774;2023-03-14T05:18:11;98573.88;;;8.37;100.00
59951;BME280;45812;53.540;9.774;2023-03-14T05:20:36;98578.09;;;8.31;100.00
59951;BME280;45812;53.540;9.774;2023-03-14T05:23:02;98578.75;;;8.40;100.00
59951;BME280;45812;53.540;9.774;2023-03-14T05:25:27;98576.69;;;8.35;100.00
59951;BME280;45812;53.540;9.774;2023-03-14T05:27:55;98570.38;;;8.36;100.00
59951;BME280;45812;53.540;9.774;2023-03-14T05:30:21;98586.25;;;8.30;100.00
59951;BME280;45812;53.540;9.774;2023-03-14T05:32:47;98575.88;;;8.35;100.00
59951;BME280;45812;53.540;9.774;2023-03-14T05:35:12;98567.75;;;8.43;100.00
59951;BME280;45812;53.540;9.774;2023-03-14T05:37:37;98571.00;;;8.38;100.00
59951;BME280;45812;53.540;9.774;2023-03-14T05:40:03;98563.06;;;8.45;100.00
59951;BME280;45812;53.540;9.774;2023-03-14T05:42:31;98561.00;;;8.47;100.00
59951;BME280;45812;53.540;9.774;2023-03-14T05:44:56;98559.78;;;8.43;100.00
59951;BME280;45812;53.540;9.774;2023-03-14T05:47:21;98546.50;;;8.36;100.00
59951;BME280;45812;53.540;9.774;2023-03-14T05:49:47;98550.00;;;8.50;100.00
59951;BME280;45812;53.540;9.774;2023-03-14T05:52:12;98549.41;;;8.41;100.00
59951;BME280;45812;53.540;9.774;2023-03-14T05:54:37;98549.78;;;8.45;100.00
59951;BME280;45812;53.540;9.774;2023-03-14T05:57:02;98546.13;;;8.46;100.00
59951;BME280;45812;53.540;9.774;2023-03-14T05:59:28;98554.47;;;8.49;100.00
59951;BME280;45812;53.540;9.774;2023-03-14T06:01:53;98553.88;;;8.61;100.00
59951;BME280;45812;53.540;9.774;2023-03-14T06:04:18;98552.66;;;8.57;100.00
59951;BME280;45812;53.540;9.774;2023-03-14T06:06:43;98551.84;;;8.63;100.00
59951;BME280;45812;53.540;9.774;2023-03-14T06:09:09;98554.06;;;8.66;100.00
59951;BME280;45812;53.540;9.774;2023-03-14T06:11:34;98545.69;;;8.69;100.00
59951;BME280;45812;53.540;9.774;2023-03-14T06:13:59;98555.28;;;8.70;100.00
59951;BME280;45812;53.540;9.774;2023-03-14T06:16:24;98559.56;;;8.71;100.00
59951;BME280;45812;53.540;9.774;2023-03-14T06:18:50;98544.47;;;8.65;100.00
59951;BME280;45812;53.540;9.774;2023-03-14T06:21:16;98580.38;;;8.54;100.00
59951;BME280;45812;53.540;9.774;2023-03-14T06:23:41;98572.44;;;8.47;100.00
59951;BME280;45812;53.540;9.774;2023-03-14T06:26:06;98565.31;;;8.41;100.00
59951;BME280;45812;53.540;9.774;2023-03-14T06:28:31;98563.81;;;8.32;100.00
59951;BME280;45812;53.540;9.774;2023-03-14T06:30:58;98565.25;;;8.28;100.00
59951;BME280;45812;53.540;9.774;2023-03-14T06:33:24;98568.56;;;8.37;100.00
59951;BME280;45812;53.540;9.774;2023-03-14T06:35:49;98564.66;;;8.53;100.00
59951;BME280;45812;53.540;9.774;2023-03-14T06:38:14;98569.78;;;8.67;100.00
59951;BME280;45812;53.540;9.774;2023-03-14T06:40:40;98585.69;;;8.67;100.00
59951;BME280;45812;53.540;9.774;2023-03-14T06:43:05;98569.34;;;8.70;100.00
59951;BME280;45812;53.540;9.774;2023-03-14T06:45:30;98582.44;;;8.65;100.00
59951;BME280;45812;53.540;9.774;2023-03-14T06:47:56;98583.03;;;8.67;100.00
59951;BME280;45812;53.540;9.774;2023-03-14T06:50:21;98577.53;;;8.62;100.00
59951;BME280;45812;53.540;9.774;2023-03-14T06:52:47;98582.03;;;8.62;100.00
59951;BME280;45812;53.540;9.774;2023-03-14T06:55:14;98597.09;;;8.55;100.00
59951;BME280;45812;53.540;9.774;2023-03-14T06:57:39;98586.91;;;8.52;100.00
59951;BME280;45812;53.540;9.774;2023-03-14T07:00:05;98593.84;;;8.53;100.00
59951;BME280;45812;53.540;9.774;2023-03-14T07:02:30;98588.53;;;8.46;100.00
59951;BME280;45812;53.540;9.774;2023-03-14T07:04:56;98586.72;;;8.40;100.00
59951;BME280;45812;53.540;9.774;2023-03-14T07:07:21;98594.47;;;8.48;100.00
59951;BME280;45812;53.540;9.774;2023-03-14T07:09:46;98615.50;;;8.56;100.00
59951;BME280;45812;53.540;9.774;2023-03-14T07:12:11;98603.44;;;8.54;100.00
59951;BME280;45812;53.540;9.774;2023-03-14T07:14:37;98606.09;;;8.47;100.00
59951;BME280;45812;53.540;9.774;2023-03-14T07:17:02;98601.22;;;8.57;100.00
59951;BME280;45812;53.540;9.774;2023-03-14T07:19:27;98613.84;;;8.62;100.00
59951;BME280;45812;53.540;9.774;2023-03-14T07:21:52;98611.59;;;8.78;100.00
59951;BME280;45812;53.540;9.774;2023-03-14T07:24:18;98624.88;;;8.78;100.00
59951;BME280;45812;53.540;9.774;2023-03-14T07:26:43;98612.22;;;8.80;100.00
59951;BME280;45812;53.540;9.774;2023-03-14T07:29:08;98607.31;;;8.84;100.00
59951;BME280;45812;53.540;9.774;2023-03-14T07:31:33;98608.72;;;8.73;100.00
59951;BME280;45812;53.540;9.774;2023-03-14T07:33:59;98602.81;;;8.71;100.00
59951;BME280;45812;53.540;9.774;2023-03-14T07:36:24;98620.56;;;8.64;100.00
59951;BME280;45812;53.540;9.774;2023-03-14T07:38:49;98620.16;;;8.54;100.00
59951;BME280;45812;53.540;9.774;2023-03-14T07:41:15;98613.22;;;8.46;100.00
59951;BME280;45812;53.540;9.774;2023-03-14T07:43:40;98621.78;;;8.48;100.00
59951;BME280;45812;53.540;9.774;2023-03-14T07:46:06;98612.19;;;8.47;100.00
59951;BME280;45812;53.540;9.774;2023-03-14T07:48:32;98610.34;;;8.55;100.00
59951;BME280;45812;53.540;9.774;2023-03-14T07:50:57;98611.78;;;8.50;100.00
59951;BME280;45812;53.540;9.774;2023-03-14T07:53:23;98618.31;;;8.55;100.00
59951;BME280;45812;53.540;9.774;2023-03-14T07:55:50;98612.63;;;8.58;100.00
59951;BME280;45812;53.540;9.774;2023-03-14T07:58:16;98615.88;;;8.60;100.00
59951;BME280;45812;53.540;9.774;2023-03-14T08:00:42;98611.22;;;8.75;100.00
59951;BME280;45812;53.540;9.774;2023-03-14T08:03:08;98608.34;;;8.96;100.00
59951;BME280;45812;53.540;9.774;2023-03-14T08:05:35;98616.47;;;9.08;100.00
59951;BME280;45812;53.540;9.774;2023-03-14T08:08:00;98625.03;;;9.30;100.00
59951;BME280;45812;53.540;9.774;2023-03-14T08:10:25;98618.06;;;9.35;100.00
59951;BME280;45812;53.540;9.774;2023-03-14T08:12:55;98606.94;;;9.58;100.00
59951;BME280;45812;53.540;9.774;2023-03-14T08:15:22;98609.59;;;9.58;100.00
59951;BME280;45812;53.540;9.774;2023-03-14T08:17:47;98611.06;;;9.54;100.00
59951;BME280;45812;53.540;9.774;2023-03-14T08:20:17;98609.59;;;9.58;100.00
59951;BME280;45812;53.540;9.774;2023-03-14T08:22:42;98611.25;;;9.59;100.00
59951;BME280;45812;53.540;9.774;2023-03-14T08:25:08;98618.50;;;9.84;100.00
59951;BME280;45812;53.540;9.774;2023-03-14T08:27:33;98601.28;;;9.93;100.00
59951;BME280;45812;53.540;9.774;2023-03-14T08:29:58;98598.34;;;9.69;100.00
59951;BME280;45812;53.540;9.774;2023-03-14T08:32:23;98609.50;;;9.85;100.00
59951;BME280;45812;53.540;9.774;2023-03-14T08:34:49;98598.03;;;9.91;100.00
59951;BME280;45812;53.540;9.774;2023-03-14T08:37:14;98609.31;;;9.86;100.00
59951;BME280;45812;53.540;9.774;2023-03-14T08:39:39;98605.66;;;9.74;100.00
59951;BME280;45812;53.540;9.774;2023-03-14T08:42:04;98614.66;;;9.66;100.00
59951;BME280;45812;53.540;9.774;2023-03-14T08:44:30;98598.56;;;9.61;100.00
59951;BME280;45812;53.540;9.774;2023-03-14T08:46:55;98605.88;;;9.66;100.00
59951;BME280;45812;53.540;9.774;2023-03-14T08:49:20;98596.13;;;9.60;100.00
59951;BME280;45812;53.540;9.774;2023-03-14T08:51:46;98601.38;;;9.73;100.00
59951;BME280;45812;53.540;9.774;2023-03-14T08:54:11;98615.34;;;9.55;100.00
59951;BME280;45812;53.540;9.774;2023-03-14T08:56:36;98612.69;;;9.55;100.00
59951;BME280;45812;53.540;9.774;2023-03-14T08:59:03;98603.44;;;9.71;100.00
59951;BME280;45812;53.540;9.774;2023-03-14T09:01:28;98615.69;;;9.65;100.00
59951;BME280;45812;53.540;9.774;2023-03-14T09:03:53;98605.75;;;9.48;100.00
59951;BME280;45812;53.540;9.774;2023-03-14T09:06:19;98612.50;;;9.50;100.00
59951;BME280;45812;53.540;9.774;2023-03-14T09:08:44;98629.47;;;9.43;100.00
59951;BME280;45812;53.540;9.774;2023-03-14T09:11:10;98616.78;;;9.45;100.00
59951;BME280;45812;53.540;9.774;2023-03-14T09:13:36;98604.53;;;9.44;100.00
59951;BME280;45812;53.540;9.774;2023-03-14T09:16:02;98601.09;;;9.36;100.00
59951;BME280;45812;53.540;9.774;2023-03-14T09:18:27;98618.88;;;9.36;100.00
59951;BME280;45812;53.540;9.774;2023-03-14T09:20:54;98614.78;;;9.40;100.00
59951;BME280;45812;53.540;9.774;2023-03-14T09:23:20;98628.44;;;9.50;100.00
59951;BME280;45812;53.540;9.774;2023-03-14T09:25:45;98612.88;;;9.60;100.00
59951;BME280;45812;53.540;9.774;2023-03-14T09:28:10;98624.69;;;9.71;100.00
59951;BME280;45812;53.540;9.774;2023-03-14T09:30:35;98628.94;;;9.79;100.00
59951;BME280;45812;53.540;9.774;2023-03-14T09:33:01;98636.06;;;9.91;100.00
59951;BME280;45812;53.540;9.774;2023-03-14T09:35:26;98654.53;;;9.73;100.00
59951;BME280;45812;53.540;9.774;2023-03-14T09:37:51;98651.06;;;9.59;100.00
59951;BME280;45812;53.540;9.774;2023-03-14T09:40:18;98647.56;;;9.65;100.00
59951;BME280;45812;53.540;9.774;2023-03-14T09:42:46;98708.13;;;9.24;100.00
59951;BME280;45812;53.540;9.774;2023-03-14T09:45:25;98716.16;;;8.36;100.00
59951;BME280;45812;53.540;9.774;2023-03-14T09:47:52;98733.88;;;7.53;100.00
59951;BME280;45812;53.540;9.774;2023-03-14T09:50:19;98745.88;;;7.00;100.00
59951;BME280;45812;53.540;9.774;2023-03-14T09:52:48;98743.00;;;6.74;100.00
59951;BME280;45812;53.540;9.774;2023-03-14T09:55:18;98764.03;;;6.46;100.00
59951;BME280;45812;53.540;9.774;2023-03-14T09:57:47;98779.50;;;6.13;100.00
59951;BME280;45812;53.540;9.774;2023-03-14T10:00:21;98783.94;;;5.83;100.00
59951;BME280;45812;53.540;9.774;2023-03-14T10:02:54;98791.13;;;5.59;100.00
59951;BME280;45812;53.540;9.774;2023-03-14T10:05:23;98802.47;;;5.45;100.00
59951;BME280;45812;53.540;9.774;2023-03-14T10:07:49;98821.41;;;5.48;100.00
59951;BME280;45812;53.540;9.774;2023-03-14T10:10:20;98820.75;;;5.46;100.00
59951;BME280;45812;53.540;9.774;2023-03-14T10:12:48;98830.72;;;5.36;100.00
59951;BME280;45812;53.540;9.774;2023-03-14T10:15:16;98834.22;;;5.52;100.00
59951;BME280;45812;53.540;9.774;2023-03-14T10:17:49;98844.91;;;5.58;100.00
59951;BME280;45812;53.540;9.774;2023-03-14T10:20:33;98867.66;;;5.59;100.00
59951;BME280;45812;53.540;9.774;2023-03-14T10:23:04;98878.56;;;5.56;100.00
59951;BME280;45812;53.540;9.774;2023-03-14T10:25:33;98890.75;;;5.57;100.00
59951;BME280;45812;53.540;9.774;2023-03-14T10:27:59;98904.59;;;5.59;100.00
59951;BME280;45812;53.540;9.774;2023-03-14T10:30:37;98912.56;;;5.51;100.00
59951;BME280;45812;53.540;9.774;2023-03-14T10:33:20;98915.50;;;5.56;100.00
59951;BME280;45812;53.540;9.774;2023-03-14T10:38:29;98949.13;;;5.39;100.00
59951;BME280;45812;53.540;9.774;2023-03-14T10:40:55;98960.06;;;5.28;100.00
59951;BME280;45812;53.540;9.774;2023-03-14T10:43:40;98973.81;;;5.15;100.00
59951;BME280;45812;53.540;9.774;2023-03-14T10:46:12;98988.91;;;5.30;100.00
59951;BME280;45812;53.540;9.774;2023-03-14T10:48:39;98998.00;;;5.50;100.00
59951;BME280;45812;53.540;9.774;2023-03-14T10:53:41;99018.06;;;5.90;100.00
59951;BME280;45812;53.540;9.774;2023-03-14T10:56:20;99030.50;;;5.82;100.00
59951;BME280;45812;53.540;9.774;2023-03-14T10:58:50;99039.97;;;5.68;100.00
59951;BME280;45812;53.540;9.774;2023-03-14T11:03:53;99071.13;;;5.41;100.00
59951;BME280;45812;53.540;9.774;2023-03-14T11:06:45;99081.13;;;5.54;100.00
59951;BME280;45812;53.540;9.774;2023-03-14T11:12:56;99106.69;;;5.54;100.00
59951;BME280;45812;53.540;9.774;2023-03-14T11:15:34;99104.88;;;5.54;100.00
59951;BME280;45812;53.540;9.774;2023-03-14T11:23:46;99163.34;;;5.18;100.00
59951;BME280;45812;53.540;9.774;2023-03-14T11:26:31;99170.63;;;5.25;100.00
59951;BME280;45812;53.540;9.774;2023-03-14T11:29:06;99185.59;;;5.32;100.00
59951;BME280;45812;53.540;9.774;2023-03-14T11:31:35;99185.38;;;5.50;100.00
59951;BME280;45812;53.540;9.774;2023-03-14T11:36:40;99207.56;;;5.72;100.00
59951;BME280;45812;53.540;9.774;2023-03-14T11:39:17;99212.59;;;6.06;97.41
59951;BME280;45812;53.540;9.774;2023-03-14T11:41:45;99214.63;;;5.96;97.21
59951;BME280;45812;53.540;9.774;2023-03-14T11:44:32;99218.59;;;5.92;96.77
59951;BME280;45812;53.540;9.774;2023-03-14T11:47:10;99227.50;;;5.91;98.64
59951;BME280;45812;53.540;9.774;2023-03-14T11:49:45;99224.94;;;5.66;97.44
59951;BME280;45812;53.540;9.774;2023-03-14T11:52:32;99222.28;;;5.66;98.57
59951;BME280;45812;53.540;9.774;2023-03-14T11:55:11;99236.00;;;5.54;97.76
59951;BME280;45812;53.540;9.774;2023-03-14T11:57:39;99245.91;;;5.60;97.99
59951;BME280;45812;53.540;9.774;2023-03-14T12:00:17;99245.84;;;5.76;97.40
59951;BME280;45812;53.540;9.774;2023-03-14T12:02:58;99238.38;;;5.88;95.78
59951;BME280;45812;53.540;9.774;2023-03-14T12:05:47;99257.69;;;5.88;95.63
59951;BME280;45812;53.540;9.774;2023-03-14T12:11:02;99268.31;;;5.56;94.62
59951;BME280;45812;53.540;9.774;2023-03-14T12:13:32;99276.28;;;5.31;95.44
59951;BME280;45812;53.540;9.774;2023-03-14T12:16:00;99280.72;;;5.47;95.77
59951;BME280;45812;53.540;9.774;2023-03-14T12:18:31;99286.81;;;5.47;96.83
59951;BME280;45812;53.540;9.774;2023-03-14T12:21:00;99290.97;;;5.34;96.16
59951;BME280;45812;53.540;9.774;2023-03-14T12:23:26;99287.66;;;5.48;96.58
59951;BME280;45812;53.540;9.774;2023-03-14T12:28:39;99304.25;;;5.73;94.04
59951;BME280;45812;53.540;9.774;2023-03-14T12:34:03;99319.78;;;5.68;93.95
59951;BME280;45812;53.540;9.774;2023-03-14T12:39:21;99343.22;;;5.30;98.64
59951;BME280;45812;53.540;9.774;2023-03-14T12:42:02;99346.66;;;4.90;100.00
59951;BME280;45812;53.540;9.774;2023-03-14T12:46:56;99356.66;;;4.70;100.00
59951;BME280;45812;53.540;9.774;2023-03-14T12:49:29;99377.69;;;4.54;100.00
59951;BME280;45812;53.540;9.774;2023-03-14T12:51:59;99369.22;;;4.42;100.00
59951;BME280;45812;53.540;9.774;2023-03-14T12:54:45;99373.41;;;4.61;100.00
59951;BME280;45812;53.540;9.774;2023-03-14T12:57:33;99379.47;;;5.04;99.92
59951;BME280;45812;53.540;9.774;2023-03-14T13:00:16;99397.13;;;5.20;89.89
59951;BME280;45812;53.540;9.774;2023-03-14T13:02:43;99411.00;;;5.38;83.44
59951;BME280;45812;53.540;9.774;2023-03-14T13:05:15;99412.69;;;5.63;77.74
59951;BME280;45812;53.540;9.774;2023-03-14T13:12:42;99438.16;;;7.31;66.19
59951;BME280;45812;53.540;9.774;2023-03-14T13:15:39;99453.56;;;7.50;56.88
59951;BME280;45812;53.540;9.774;2023-03-14T13:18:17;99454.41;;;7.50;54.35
59951;BME280;45812;53.540;9.774;2023-03-14T13:20:49;99470.22;;;6.57;53.56
59951;BME280;45812;53.540;9.774;2023-03-14T13:23:30;99470.28;;;5.92;56.87
59951;BME280;45812;53.540;9.774;2023-03-14T13:25:56;99480.50;;;5.79;56.90
59951;BME280;45812;53.540;9.774;2023-03-14T13:28:22;99468.44;;;5.60;58.11
59951;BME280;45812;53.540;9.774;2023-03-14T13:30:49;99501.78;;;5.69;59.81
59951;BME280;45812;53.540;9.774;2023-03-14T13:33:18;99501.31;;;5.90;60.61
59951;BME280;45812;53.540;9.774;2023-03-14T13:35:54;99513.69;;;6.30;60.72
59951;BME280;45812;53.540;9.774;2023-03-14T13:38:22;99526.75;;;6.24;60.68
59951;BME280;45812;53.540;9.774;2023-03-14T13:40:49;99524.06;;;6.64;57.65
59951;BME280;45812;53.540;9.774;2023-03-14T13:43:23;99518.44;;;6.67;56.32
59951;BME280;45812;53.540;9.774;2023-03-14T13:45:51;99520.38;;;6.82;57.19